ADDS METAR Data

Data at: 0256 UTC 21 Jun 2018

METAR for:KLGA (New York/La Guardia, NY, US)
Text:KLGA 210251Z 16007KT 10SM BKN065 OVC075 23/19 A2977 RMK AO2 SLP080 T02330194 58000
Temperature: 23.3°C ( 74°F)
Dewpoint: 19.4°C ( 67°F) [RH = 79%]
Pressure (altimeter):29.77 inches Hg (1008.2 mb) [Sea level pressure: 1008.0 mb]
Winds:from the SSE (160 degrees) at 8 MPH (7 knots; 3.6 m/s)
Visibility:10 or more sm (16+ km)
Ceiling:6500 feet AGL
Clouds: broken clouds at 6500 feet AGL, overcast cloud deck at 7500 feet AGL